sensor_id;sensor_type;location;lat;lon;timestamp;P1;durP1;ratioP1;P2;durP2;ratioP2
20792;SDS011;10556;-33.662;151.094;2023-07-02T00:03:54;1.27;;;0.40;;
20792;SDS011;10556;-33.662;151.094;2023-07-02T00:08:55;0.80;;;0.50;;
20792;SDS011;10556;-33.662;151.094;2023-07-02T00:13:58;0.60;;;0.37;;
20792;SDS011;10556;-33.662;151.094;2023-07-02T00:19:00;0.57;;;0.40;;
20792;SDS011;10556;-33.662;151.094;2023-07-02T00:24:01;65.57;;;3.53;;
20792;SDS011;10556;-33.662;151.094;2023-07-02T00:29:04;1.57;;;0.60;;
20792;SDS011;10556;-33.662;151.094;2023-07-02T00:34:06;0.77;;;0.33;;
20792;SDS011;10556;-33.662;151.094;2023-07-02T00:39:07;0.67;;;0.60;;
20792;SDS011;10556;-33.662;151.094;2023-07-02T00:44:10;1.83;;;0.50;;
20792;SDS011;10556;-33.662;151.094;2023-07-02T00:49:11;1.13;;;0.50;;
20792;SDS011;10556;-33.662;151.094;2023-07-02T00:54:13;1.07;;;0.60;;
20792;SDS011;10556;-33.662;151.094;2023-07-02T00:59:16;1.63;;;0.60;;
20792;SDS011;10556;-33.662;151.094;2023-07-02T01:04:17;0.70;;;0.60;;
20792;SDS011;10556;-33.662;151.094;2023-07-02T01:09:19;0.57;;;0.40;;
20792;SDS011;10556;-33.662;151.094;2023-07-02T01:14:28;3.10;;;0.57;;
20792;SDS011;10556;-33.662;151.094;2023-07-02T01:19:38;1.27;;;0.73;;
20792;SDS011;10556;-33.662;151.094;2023-07-02T01:24:40;0.47;;;0.40;;
20792;SDS011;10556;-33.662;151.094;2023-07-02T01:29:42;1.13;;;0.50;;
20792;SDS011;10556;-33.662;151.094;2023-07-02T01:34:45;2.53;;;0.50;;
20792;SDS011;10556;-33.662;151.094;2023-07-02T01:39:46;0.60;;;0.40;;
20792;SDS011;10556;-33.662;151.094;2023-07-02T01:44:48;0.90;;;0.63;;
20792;SDS011;10556;-33.662;151.094;2023-07-02T01:49:51;1.23;;;0.40;;
20792;SDS011;10556;-33.662;151.094;2023-07-02T01:54:53;3.57;;;0.40;;
20792;SDS011;10556;-33.662;151.094;2023-07-02T01:59:54;2.30;;;0.40;;
20792;SDS011;10556;-33.662;151.094;2023-07-02T02:04:57;2.00;;;0.37;;
20792;SDS011;10556;-33.662;151.094;2023-07-02T02:09:58;0.93;;;0.20;;
20792;SDS011;10556;-33.662;151.094;2023-07-02T02:14:59;1.00;;;0.40;;
20792;SDS011;10556;-33.662;151.094;2023-07-02T02:20:03;0.60;;;0.30;;
20792;SDS011;10556;-33.662;151.094;2023-07-02T02:25:04;1.60;;;0.57;;
20792;SDS011;10556;-33.662;151.094;2023-07-02T02:30:06;1.33;;;0.30;;
20792;SDS011;10556;-33.662;151.094;2023-07-02T02:35:10;0.60;;;0.30;;
20792;SDS011;10556;-33.662;151.094;2023-07-02T02:40:11;0.50;;;0.27;;
20792;SDS011;10556;-33.662;151.094;2023-07-02T02:45:13;1.00;;;0.43;;
20792;SDS011;10556;-33.662;151.094;2023-07-02T02:50:16;0.97;;;0.33;;
20792;SDS011;10556;-33.662;151.094;2023-07-02T02:55:17;1.47;;;0.40;;
20792;SDS011;10556;-33.662;151.094;2023-07-02T03:00:18;0.63;;;0.20;;
20792;SDS011;10556;-33.662;151.094;2023-07-02T03:05:21;1.17;;;0.30;;
20792;SDS011;10556;-33.662;151.094;2023-07-02T03:10:23;0.70;;;0.50;;
20792;SDS011;10556;-33.662;151.094;2023-07-02T03:15:24;0.90;;;0.43;;
20792;SDS011;10556;-33.662;151.094;2023-07-02T03:20:27;1.00;;;0.30;;
20792;SDS011;10556;-33.662;151.094;2023-07-02T03:25:28;1.00;;;0.30;;
20792;SDS011;10556;-33.662;151.094;2023-07-02T03:30:29;1.73;;;0.60;;
20792;SDS011;10556;-33.662;151.094;2023-07-02T03:35:33;1.67;;;0.30;;
20792;SDS011;10556;-33.662;151.094;2023-07-02T03:40:34;1.13;;;0.30;;
20792;SDS011;10556;-33.662;151.094;2023-07-02T03:45:35;1.33;;;0.40;;
20792;SDS011;10556;-33.662;151.094;2023-07-02T03:50:38;0.87;;;0.20;;
20792;SDS011;10556;-33.662;151.094;2023-07-02T03:55:40;1.83;;;0.20;;
20792;SDS011;10556;-33.662;151.094;2023-07-02T04:00:41;1.23;;;0.30;;
20792;SDS011;10556;-33.662;151.094;2023-07-02T04:05:44;1.03;;;0.30;;
20792;SDS011;10556;-33.662;151.094;2023-07-02T04:10:46;0.97;;;0.20;;
20792;SDS011;10556;-33.662;151.094;2023-07-02T04:15:47;0.37;;;0.20;;
20792;SDS011;10556;-33.662;151.094;2023-07-02T04:20:50;0.33;;;0.20;;
20792;SDS011;10556;-33.662;151.094;2023-07-02T04:25:52;1.17;;;0.23;;
20792;SDS011;10556;-33.662;151.094;2023-07-02T04:30:53;2.53;;;0.50;;
20792;SDS011;10556;-33.662;151.094;2023-07-02T04:35:56;0.53;;;0.30;;
20792;SDS011;10556;-33.662;151.094;2023-07-02T04:40:58;0.73;;;0.27;;
20792;SDS011;10556;-33.662;151.094;2023-07-02T04:45:59;4.07;;;1.63;;
20792;SDS011;10556;-33.662;151.094;2023-07-02T04:51:03;1.97;;;0.90;;
20792;SDS011;10556;-33.662;151.094;2023-07-02T04:56:04;1.97;;;0.60;;
20792;SDS011;10556;-33.662;151.094;2023-07-02T05:01:06;0.93;;;0.40;;
20792;SDS011;10556;-33.662;151.094;2023-07-02T05:06:09;1.53;;;0.40;;
20792;SDS011;10556;-33.662;151.094;2023-07-02T05:11:10;1.00;;;0.50;;
20792;SDS011;10556;-33.662;151.094;2023-07-02T05:16:11;0.37;;;0.30;;
20792;SDS011;10556;-33.662;151.094;2023-07-02T05:21:19;1.47;;;0.40;;
20792;SDS011;10556;-33.662;151.094;2023-07-02T05:26:21;2.03;;;0.70;;
20792;SDS011;10556;-33.662;151.094;2023-07-02T05:31:22;1.13;;;0.33;;
20792;SDS011;10556;-33.662;151.094;2023-07-02T05:36:25;2.10;;;0.40;;
20792;SDS011;10556;-33.662;151.094;2023-07-02T05:41:26;2.33;;;0.40;;
20792;SDS011;10556;-33.662;151.094;2023-07-02T05:46:28;1.70;;;0.40;;
20792;SDS011;10556;-33.662;151.094;2023-07-02T05:51:31;3.20;;;0.60;;
20792;SDS011;10556;-33.662;151.094;2023-07-02T05:56:32;0.80;;;0.40;;
20792;SDS011;10556;-33.662;151.094;2023-07-02T06:01:34;0.67;;;0.43;;
20792;SDS011;10556;-33.662;151.094;2023-07-02T06:06:37;1.73;;;0.50;;
20792;SDS011;10556;-33.662;151.094;2023-07-02T06:11:38;2.20;;;0.63;;
20792;SDS011;10556;-33.662;151.094;2023-07-02T06:16:41;1.90;;;0.47;;
20792;SDS011;10556;-33.662;151.094;2023-07-02T06:21:44;2.00;;;0.50;;
20792;SDS011;10556;-33.662;151.094;2023-07-02T06:26:45;3.80;;;0.77;;
20792;SDS011;10556;-33.662;151.094;2023-07-02T06:31:47;0.70;;;0.60;;
20792;SDS011;10556;-33.662;151.094;2023-07-02T06:36:50;5.77;;;0.70;;
20792;SDS011;10556;-33.662;151.094;2023-07-02T06:41:51;2.97;;;0.70;;
20792;SDS011;10556;-33.662;151.094;2023-07-02T06:46:52;2.43;;;0.90;;
20792;SDS011;10556;-33.662;151.094;2023-07-02T06:51:56;1.07;;;0.57;;
20792;SDS011;10556;-33.662;151.094;2023-07-02T06:56:57;1.80;;;0.57;;
20792;SDS011;10556;-33.662;151.094;2023-07-02T07:01:58;2.33;;;0.80;;
20792;SDS011;10556;-33.662;151.094;2023-07-02T07:07:02;3.37;;;0.90;;
20792;SDS011;10556;-33.662;151.094;2023-07-02T07:12:03;2.23;;;1.20;;
20792;SDS011;10556;-33.662;151.094;2023-07-02T07:17:05;3.17;;;1.33;;
20792;SDS011;10556;-33.662;151.094;2023-07-02T07:22:09;5.10;;;1.90;;
20792;SDS011;10556;-33.662;151.094;2023-07-02T07:27:10;1.70;;;1.40;;
20792;SDS011;10556;-33.662;151.094;2023-07-02T07:32:11;3.43;;;1.67;;
20792;SDS011;10556;-33.662;151.094;2023-07-02T07:37:15;5.90;;;1.40;;
20792;SDS011;10556;-33.662;151.094;2023-07-02T07:42:16;3.80;;;1.57;;
20792;SDS011;10556;-33.662;151.094;2023-07-02T07:47:17;5.73;;;1.60;;
20792;SDS011;10556;-33.662;151.094;2023-07-02T07:52:21;3.97;;;1.60;;
20792;SDS011;10556;-33.662;151.094;2023-07-02T07:57:22;3.00;;;1.80;;
20792;SDS011;10556;-33.662;151.094;2023-07-02T08:02:24;4.13;;;2.47;;
20792;SDS011;10556;-33.662;151.094;2023-07-02T08:07:27;7.80;;;3.57;;
20792;SDS011;10556;-33.662;151.094;2023-07-02T08:12:28;6.93;;;2.57;;
20792;SDS011;10556;-33.662;151.094;2023-07-02T08:17:30;3.40;;;2.03;;
20792;SDS011;10556;-33.662;151.094;2023-07-02T08:22:33;3.53;;;2.30;;
20792;SDS011;10556;-33.662;151.094;2023-07-02T08:27:34;3.43;;;2.27;;
20792;SDS011;10556;-33.662;151.094;2023-07-02T08:32:36;4.03;;;2.00;;
20792;SDS011;10556;-33.662;151.094;2023-07-02T08:37:39;4.33;;;2.60;;
20792;SDS011;10556;-33.662;151.094;2023-07-02T08:42:41;5.40;;;3.00;;
20792;SDS011;10556;-33.662;151.094;2023-07-02T08:47:43;5.30;;;2.57;;
20792;SDS011;10556;-33.662;151.094;2023-07-02T08:52:46;5.07;;;1.90;;
20792;SDS011;10556;-33.662;151.094;2023-07-02T09:02:48;5.50;;;2.70;;
20792;SDS011;10556;-33.662;151.094;2023-07-02T09:07:52;3.07;;;1.83;;
20792;SDS011;10556;-33.662;151.094;2023-07-02T09:13:02;6.97;;;3.20;;
20792;SDS011;10556;-33.662;151.094;2023-07-02T09:18:14;5.30;;;2.20;;
20792;SDS011;10556;-33.662;151.094;2023-07-02T09:23:17;3.67;;;2.03;;
20792;SDS011;10556;-33.662;151.094;2023-07-02T09:28:19;3.87;;;2.20;;
20792;SDS011;10556;-33.662;151.094;2023-07-02T09:33:21;4.63;;;2.40;;
20792;SDS011;10556;-33.662;151.094;2023-07-02T09:38:24;4.37;;;2.53;;
20792;SDS011;10556;-33.662;151.094;2023-07-02T09:43:26;6.77;;;2.80;;
20792;SDS011;10556;-33.662;151.094;2023-07-02T09:48:27;4.17;;;1.87;;
20792;SDS011;10556;-33.662;151.094;2023-07-02T09:53:32;5.10;;;2.40;;
20792;SDS011;10556;-33.662;151.094;2023-07-02T09:58:33;5.87;;;2.57;;
20792;SDS011;10556;-33.662;151.094;2023-07-02T10:03:34;5.00;;;2.50;;
20792;SDS011;10556;-33.662;151.094;2023-07-02T10:08:37;7.70;;;3.20;;
20792;SDS011;10556;-33.662;151.094;2023-07-02T10:13:39;6.93;;;3.37;;
20792;SDS011;10556;-33.662;151.094;2023-07-02T10:18:40;6.40;;;3.07;;
20792;SDS011;10556;-33.662;151.094;2023-07-02T10:23:43;10.80;;;4.00;;
20792;SDS011;10556;-33.662;151.094;2023-07-02T10:28:55;11.57;;;4.57;;
20792;SDS011;10556;-33.662;151.094;2023-07-02T10:33:57;9.07;;;3.60;;
20792;SDS011;10556;-33.662;151.094;2023-07-02T10:39:03;6.27;;;3.50;;
20792;SDS011;10556;-33.662;151.094;2023-07-02T10:44:08;5.57;;;3.07;;
20792;SDS011;10556;-33.662;151.094;2023-07-02T10:49:09;5.43;;;3.10;;
20792;SDS011;10556;-33.662;151.094;2023-07-02T10:54:12;5.57;;;2.87;;
20792;SDS011;10556;-33.662;151.094;2023-07-02T10:59:23;3.80;;;2.03;;
20792;SDS011;10556;-33.662;151.094;2023-07-02T11:04:24;4.53;;;2.00;;
20792;SDS011;10556;-33.662;151.094;2023-07-02T11:09:27;5.83;;;2.67;;
20792;SDS011;10556;-33.662;151.094;2023-07-02T11:14:29;5.60;;;2.53;;
20792;SDS011;10556;-33.662;151.094;2023-07-02T11:19:31;6.87;;;2.73;;
20792;SDS011;10556;-33.662;151.094;2023-07-02T11:24:34;6.93;;;3.20;;
20792;SDS011;10556;-33.662;151.094;2023-07-02T11:29:36;4.27;;;2.40;;
20792;SDS011;10556;-33.662;151.094;2023-07-02T11:34:37;5.60;;;2.80;;
20792;SDS011;10556;-33.662;151.094;2023-07-02T11:39:42;5.03;;;2.60;;
20792;SDS011;10556;-33.662;151.094;2023-07-02T11:44:44;7.33;;;2.47;;
20792;SDS011;10556;-33.662;151.094;2023-07-02T11:49:45;4.20;;;2.23;;
20792;SDS011;10556;-33.662;151.094;2023-07-02T11:54:48;4.23;;;2.13;;
20792;SDS011;10556;-33.662;151.094;2023-07-02T11:59:49;7.17;;;2.63;;
20792;SDS011;10556;-33.662;151.094;2023-07-02T12:04:50;7.53;;;2.13;;
20792;SDS011;10556;-33.662;151.094;2023-07-02T12:09:53;5.20;;;2.13;;
20792;SDS011;10556;-33.662;151.094;2023-07-02T12:14:55;5.90;;;2.57;;
20792;SDS011;10556;-33.662;151.094;2023-07-02T12:19:56;4.57;;;1.87;;
20792;SDS011;10556;-33.662;151.094;2023-07-02T12:24:59;9.63;;;2.77;;
20792;SDS011;10556;-33.662;151.094;2023-07-02T12:30:00;6.90;;;3.10;;
20792;SDS011;10556;-33.662;151.094;2023-07-02T12:35:01;9.03;;;3.43;;
20792;SDS011;10556;-33.662;151.094;2023-07-02T12:40:05;5.60;;;2.93;;
20792;SDS011;10556;-33.662;151.094;2023-07-02T12:45:07;6.20;;;2.60;;
20792;SDS011;10556;-33.662;151.094;2023-07-02T12:50:09;7.43;;;3.10;;
20792;SDS011;10556;-33.662;151.094;2023-07-02T12:55:12;4.97;;;2.93;;
20792;SDS011;10556;-33.662;151.094;2023-07-02T13:00:13;4.73;;;2.73;;
20792;SDS011;10556;-33.662;151.094;2023-07-02T13:05:15;6.90;;;2.70;;
20792;SDS011;10556;-33.662;151.094;2023-07-02T13:10:18;3.80;;;2.50;;
20792;SDS011;10556;-33.662;151.094;2023-07-02T13:15:19;5.40;;;2.87;;
20792;SDS011;10556;-33.662;151.094;2023-07-02T13:20:20;6.20;;;2.30;;
20792;SDS011;10556;-33.662;151.094;2023-07-02T13:25:23;3.80;;;2.33;;
20792;SDS011;10556;-33.662;151.094;2023-07-02T13:30:25;6.03;;;2.80;;
20792;SDS011;10556;-33.662;151.094;2023-07-02T13:35:26;5.43;;;2.50;;
20792;SDS011;10556;-33.662;151.094;2023-07-02T13:40:29;4.67;;;2.97;;
20792;SDS011;10556;-33.662;151.094;2023-07-02T13:45:30;4.93;;;2.90;;
20792;SDS011;10556;-33.662;151.094;2023-07-02T13:50:31;3.90;;;2.40;;
20792;SDS011;10556;-33.662;151.094;2023-07-02T13:55:35;3.63;;;2.30;;
20792;SDS011;10556;-33.662;151.094;2023-07-02T14:00:38;5.43;;;2.87;;
20792;SDS011;10556;-33.662;151.094;2023-07-02T14:05:39;7.30;;;2.40;;
20792;SDS011;10556;-33.662;151.094;2023-07-02T14:10:40;5.07;;;2.83;;
20792;SDS011;10556;-33.662;151.094;2023-07-02T14:15:43;3.80;;;2.13;;
20792;SDS011;10556;-33.662;151.094;2023-07-02T14:20:44;5.17;;;2.70;;
20792;SDS011;10556;-33.662;151.094;2023-07-02T14:25:46;6.77;;;2.90;;
20792;SDS011;10556;-33.662;151.094;2023-07-02T14:30:50;4.13;;;2.30;;
20792;SDS011;10556;-33.662;151.094;2023-07-02T14:35:56;8.43;;;3.07;;
20792;SDS011;10556;-33.662;151.094;2023-07-02T14:40:57;4.47;;;2.77;;
20792;SDS011;10556;-33.662;151.094;2023-07-02T14:46:01;6.37;;;2.80;;
20792;SDS011;10556;-33.662;151.094;2023-07-02T14:51:02;6.17;;;2.50;;
20792;SDS011;10556;-33.662;151.094;2023-07-02T14:56:04;3.40;;;2.43;;
20792;SDS011;10556;-33.662;151.094;2023-07-02T15:01:07;4.20;;;2.23;;
20792;SDS011;10556;-33.662;151.094;2023-07-02T15:06:09;5.60;;;2.53;;
20792;SDS011;10556;-33.662;151.094;2023-07-02T15:11:11;6.33;;;2.70;;
20792;SDS011;10556;-33.662;151.094;2023-07-02T15:16:14;3.53;;;2.50;;
20792;SDS011;10556;-33.662;151.094;2023-07-02T15:21:15;4.30;;;2.00;;
20792;SDS011;10556;-33.662;151.094;2023-07-02T15:26:17;3.50;;;2.00;;
20792;SDS011;10556;-33.662;151.094;2023-07-02T15:31:20;4.67;;;1.73;;
20792;SDS011;10556;-33.662;151.094;2023-07-02T15:36:21;3.03;;;1.67;;
20792;SDS011;10556;-33.662;151.094;2023-07-02T15:41:22;3.43;;;1.80;;
20792;SDS011;10556;-33.662;151.094;2023-07-02T15:46:25;4.23;;;1.80;;
20792;SDS011;10556;-33.662;151.094;2023-07-02T15:51:26;3.57;;;1.53;;
20792;SDS011;10556;-33.662;151.094;2023-07-02T15:56:28;2.20;;;1.50;;
20792;SDS011;10556;-33.662;151.094;2023-07-02T16:01:31;2.87;;;1.63;;
20792;SDS011;10556;-33.662;151.094;2023-07-02T16:06:41;6.33;;;1.93;;
20792;SDS011;10556;-33.662;151.094;2023-07-02T16:11:43;4.00;;;1.30;;
20792;SDS011;10556;-33.662;151.094;2023-07-02T16:16:46;4.07;;;1.40;;
20792;SDS011;10556;-33.662;151.094;2023-07-02T16:21:47;2.00;;;1.30;;
20792;SDS011;10556;-33.662;151.094;2023-07-02T16:26:49;3.70;;;1.30;;
20792;SDS011;10556;-33.662;151.094;2023-07-02T16:31:53;5.17;;;1.47;;
20792;SDS011;10556;-33.662;151.094;2023-07-02T16:36:55;4.07;;;1.43;;
20792;SDS011;10556;-33.662;151.094;2023-07-02T16:41:57;2.63;;;1.70;;
20792;SDS011;10556;-33.662;151.094;2023-07-02T16:47:00;4.17;;;1.63;;
20792;SDS011;10556;-33.662;151.094;2023-07-02T16:52:01;3.00;;;1.47;;
20792;SDS011;10556;-33.662;151.094;2023-07-02T16:57:03;2.87;;;1.30;;
20792;SDS011;10556;-33.662;151.094;2023-07-02T17:02:07;3.77;;;1.50;;
20792;SDS011;10556;-33.662;151.094;2023-07-02T17:07:08;3.03;;;1.33;;
20792;SDS011;10556;-33.662;151.094;2023-07-02T17:12:10;3.77;;;1.37;;
20792;SDS011;10556;-33.662;151.094;2023-07-02T17:17:14;3.97;;;2.00;;
20792;SDS011;10556;-33.662;151.094;2023-07-02T17:22:16;2.67;;;1.23;;
20792;SDS011;10556;-33.662;151.094;2023-07-02T17:27:18;2.90;;;1.37;;
20792;SDS011;10556;-33.662;151.094;2023-07-02T17:32:22;3.07;;;1.70;;
20792;SDS011;10556;-33.662;151.094;2023-07-02T17:37:23;3.87;;;1.50;;
20792;SDS011;10556;-33.662;151.094;2023-07-02T17:42:24;4.40;;;1.90;;
20792;SDS011;10556;-33.662;151.094;2023-07-02T17:47:27;5.73;;;1.80;;
20792;SDS011;10556;-33.662;151.094;2023-07-02T17:52:29;3.93;;;1.93;;
20792;SDS011;10556;-33.662;151.094;2023-07-02T17:57:30;4.33;;;1.90;;
20792;SDS011;10556;-33.662;151.094;2023-07-02T18:02:33;3.33;;;1.73;;
20792;SDS011;10556;-33.662;151.094;2023-07-02T18:07:35;5.00;;;2.10;;
20792;SDS011;10556;-33.662;151.094;2023-07-02T18:12:36;5.70;;;2.23;;
20792;SDS011;10556;-33.662;151.094;2023-07-02T18:17:39;5.20;;;2.30;;
20792;SDS011;10556;-33.662;151.094;2023-07-02T18:22:40;4.27;;;2.47;;
20792;SDS011;10556;-33.662;151.094;2023-07-02T18:27:41;2.53;;;1.70;;
20792;SDS011;10556;-33.662;151.094;2023-07-02T18:32:44;5.50;;;2.47;;
20792;SDS011;10556;-33.662;151.094;2023-07-02T18:37:46;4.33;;;2.30;;
20792;SDS011;10556;-33.662;151.094;2023-07-02T18:42:47;5.03;;;1.80;;
20792;SDS011;10556;-33.662;151.094;2023-07-02T18:47:50;7.10;;;2.00;;
20792;SDS011;10556;-33.662;151.094;2023-07-02T18:52:51;3.57;;;2.10;;
20792;SDS011;10556;-33.662;151.094;2023-07-02T18:57:52;4.60;;;1.93;;
20792;SDS011;10556;-33.662;151.094;2023-07-02T19:02:55;4.53;;;2.07;;
20792;SDS011;10556;-33.662;151.094;2023-07-02T19:07:57;3.93;;;2.30;;
20792;SDS011;10556;-33.662;151.094;2023-07-02T19:12:58;3.17;;;1.97;;
20792;SDS011;10556;-33.662;151.094;2023-07-02T19:18:01;5.53;;;2.20;;
20792;SDS011;10556;-33.662;151.094;2023-07-02T19:23:02;4.53;;;2.27;;
20792;SDS011;10556;-33.662;151.094;2023-07-02T19:28:04;3.10;;;1.87;;
20792;SDS011;10556;-33.662;151.094;2023-07-02T19:33:07;6.07;;;1.93;;
20792;SDS011;10556;-33.662;151.094;2023-07-02T19:38:08;9.80;;;3.13;;
20792;SDS011;10556;-33.662;151.094;2023-07-02T19:43:09;4.13;;;1.83;;
20792;SDS011;10556;-33.662;151.094;2023-07-02T19:48:12;3.87;;;2.37;;
20792;SDS011;10556;-33.662;151.094;2023-07-02T19:53:14;6.80;;;2.20;;
20792;SDS011;10556;-33.662;151.094;2023-07-02T19:58:15;4.20;;;1.90;;
20792;SDS011;10556;-33.662;151.094;2023-07-02T20:03:18;2.27;;;1.43;;
20792;SDS011;10556;-33.662;151.094;2023-07-02T20:08:19;6.57;;;1.80;;
20792;SDS011;10556;-33.662;151.094;2023-07-02T20:13:20;2.67;;;1.70;;
20792;SDS011;10556;-33.662;151.094;2023-07-02T20:18:23;4.40;;;1.57;;
20792;SDS011;10556;-33.662;151.094;2023-07-02T20:23:25;4.20;;;2.10;;
20792;SDS011;10556;-33.662;151.094;2023-07-02T20:28:26;6.47;;;1.67;;
20792;SDS011;10556;-33.662;151.094;2023-07-02T20:33:29;2.57;;;1.80;;
20792;SDS011;10556;-33.662;151.094;2023-07-02T20:38:30;7.03;;;2.00;;
20792;SDS011;10556;-33.662;151.094;2023-07-02T20:43:31;4.70;;;1.73;;
20792;SDS011;10556;-33.662;151.094;2023-07-02T20:48:35;2.87;;;1.53;;
20792;SDS011;10556;-33.662;151.094;2023-07-02T20:53:36;4.00;;;1.80;;
20792;SDS011;10556;-33.662;151.094;2023-07-02T20:58:37;4.17;;;2.03;;
20792;SDS011;10556;-33.662;151.094;2023-07-02T21:03:40;2.93;;;1.60;;
20792;SDS011;10556;-33.662;151.094;2023-07-02T21:08:41;3.33;;;1.40;;
20792;SDS011;10556;-33.662;151.094;2023-07-02T21:13:43;3.07;;;1.93;;
20792;SDS011;10556;-33.662;151.094;2023-07-02T21:18:46;4.13;;;1.93;;
20792;SDS011;10556;-33.662;151.094;2023-07-02T21:23:47;3.07;;;1.73;;
20792;SDS011;10556;-33.662;151.094;2023-07-02T21:28:48;4.40;;;2.33;;
20792;SDS011;10556;-33.662;151.094;2023-07-02T21:33:51;2.77;;;1.90;;
20792;SDS011;10556;-33.662;151.094;2023-07-02T21:38:53;4.47;;;2.27;;
20792;SDS011;10556;-33.662;151.094;2023-07-02T21:43:54;5.50;;;2.20;;
20792;SDS011;10556;-33.662;151.094;2023-07-02T21:48:57;4.80;;;2.30;;
20792;SDS011;10556;-33.662;151.094;2023-07-02T21:53:59;4.37;;;2.23;;
20792;SDS011;10556;-33.662;151.094;2023-07-02T21:59:01;5.17;;;2.10;;
20792;SDS011;10556;-33.662;151.094;2023-07-02T22:04:04;4.03;;;1.87;;
20792;SDS011;10556;-33.662;151.094;2023-07-02T22:09:05;3.20;;;1.60;;
20792;SDS011;10556;-33.662;151.094;2023-07-02T22:14:07;4.93;;;1.60;;
20792;SDS011;10556;-33.662;151.094;2023-07-02T22:19:10;2.17;;;1.17;;
20792;SDS011;10556;-33.662;151.094;2023-07-02T22:24:11;1.87;;;1.20;;
20792;SDS011;10556;-33.662;151.094;2023-07-02T22:29:13;1.93;;;1.00;;
20792;SDS011;10556;-33.662;151.094;2023-07-02T22:34:16;2.17;;;1.10;;
20792;SDS011;10556;-33.662;151.094;2023-07-02T22:39:18;2.10;;;1.00;;
20792;SDS011;10556;-33.662;151.094;2023-07-02T22:44:19;4.07;;;1.27;;
20792;SDS011;10556;-33.662;151.094;2023-07-02T22:49:22;2.63;;;1.10;;
20792;SDS011;10556;-33.662;151.094;2023-07-02T22:54:24;1.67;;;1.10;;
20792;SDS011;10556;-33.662;151.094;2023-07-02T22:59:25;2.40;;;1.23;;
20792;SDS011;10556;-33.662;151.094;2023-07-02T23:04:29;1.90;;;1.07;;
20792;SDS011;10556;-33.662;151.094;2023-07-02T23:09:30;2.87;;;1.30;;
20792;SDS011;10556;-33.662;151.094;2023-07-02T23:14:31;1.90;;;0.90;;
20792;SDS011;10556;-33.662;151.094;2023-07-02T23:19:35;2.17;;;1.10;;
20792;SDS011;10556;-33.662;151.094;2023-07-02T23:24:36;4.00;;;1.10;;
20792;SDS011;10556;-33.662;151.094;2023-07-02T23:29:38;1.23;;;0.90;;
20792;SDS011;10556;-33.662;151.094;2023-07-02T23:34:41;1.60;;;0.90;;
20792;SDS011;10556;-33.662;151.094;2023-07-02T23:39:42;3.20;;;0.90;;
20792;SDS011;10556;-33.662;151.094;2023-07-02T23:44:44;2.47;;;1.00;;
20792;SDS011;10556;-33.662;151.094;2023-07-02T23:49:47;1.10;;;0.80;;
20792;SDS011;10556;-33.662;151.094;2023-07-02T23:54:49;1.37;;;0.97;;
20792;SDS011;10556;-33.662;151.094;2023-07-02T23:59:51;1.63;;;0.70;;
